Chicago Midway International Airport
KMDW : now visible

Airfield :











YOU CAN JOIN US ON...

 
LOGIN :

Register | Disclaimer

   EN    FR    IT 

 









Legend :    VFR   Marginal VFR   IFR   Intensive IFR   Very Intensive IFR
Visi :
Ceiling :
>= 8 km
>= 3000ft
5 to 8 km
1000 to 3000 ft
1500m to 5 km
500 to 1000 ft
800 to 1500m
200 to 500 ft
< 800m
< 200 ft
Symbols :   Thunderstorms  Fog  Heavy snow  Heavy precipitations  Wind > 20 kt






- Airport Elevation : 620 ft
- IATA code : MDW


KMDW - Chicago Midway International

CURRENT METAR :
  • 041453Z 34011KT 8SM OVC010 04/03 A3014 RMK AO2 SLP209 60001 T00440028 51020

EXPIRED METARs :
  • 041412Z 34010KT 10SM OVC010 04/03 A3013 RMK AO2 T00390028
  • 041353Z 34011KT 8SM OVC008 04/03 A3012 RMK AO2 SLP204 T00390028
  • 041253Z 34012KT 7SM BKN009 BKN014 OVC017 04/03 A3010 RMK AO2 RAE09B31E47 SLP197 P0001 T00440033
  • 041239Z 34013KT 5SM -RA BR BKN009 BKN014 OVC017 04/04 A3010 RMK AO2 RAE09B31 P0001 T00440039

TAF KMDW
Valid from the 04 at 15:00 until the 05 at 18:00 UTC


041439Z 0415/0518 35010KT P6SM OVC010
FM041730 01009KT P6SM BKN012
FM042100 04012KT P6SM SCT015
FM050200 06005KT P6SM BKN150



MET'MAP, your aeronautical weather chart ! - Copyright ORBIFLY December 2007 - Disclaimer

ORBIFLY MET'MAP TEAM :

Programming & Development : Alexandra Zaïnal
Concept & original design : Baudouin d'Aumeries
Assistance for programming : Marc-Olivier Méhu
Technical & hardware support : Manuel Goepfert

Contact : metmap@orbifly.com




SOURCES & CREDITS :

   NOAA       Earth
Advisory